Time;durP1;ratioP1;P1;durP2;ratioP2;P2;SDS_P1;SDS_P2;PMS_P1;PMS_P2;Temp;Humidity;BMP_temperature;BMP_pressure;BME280_temperature;BME280_humidity;BME280_pressure;Samples;Min_cycle;Max_cycle;Signal;HPM_P1;HPM_P2
2022/12/27 00:01:41;;;;;;;1.10;1.07;;;8.30;65.50;;;;;;20819;6747;118494;-72
2022/12/27 00:04:17;;;;;;;1.40;1.12;;;8.30;66.00;;;;;;20657;6743;305865;-72
2022/12/27 00:06:52;;;;;;;1.00;1.00;;;8.60;65.10;;;;;;20636;6743;305792;-72
2022/12/27 00:09:29;;;;;;;2.65;2.30;;;9.50;60.50;;;;;;20531;6760;281450;-72
2022/12/27 00:12:04;;;;;;;3.47;3.10;;;9.50;60.50;;;;;;20708;6787;118775;-72
2022/12/27 00:14:40;;;;;;;0.80;0.80;;;9.40;60.50;;;;;;20812;6762;117022;-72
2022/12/27 00:17:18;;;;;;;1.50;1.00;;;9.10;61.10;;;;;;20534;6760;336180;-72
2022/12/27 00:19:52;;;;;;;2.08;1.00;;;9.30;60.90;;;;;;20577;6770;308058;-72
2022/12/27 00:22:29;;;;;;;1.17;1.00;;;9.50;59.70;;;;;;20856;6740;117735;-72
2022/12/27 00:25:05;;;;;;;0.77;0.70;;;9.40;60.00;;;;;;20867;6755;117741;-72
2022/12/27 00:27:40;;;;;;;1.00;0.97;;;9.10;60.90;;;;;;20566;6738;299765;-72
2022/12/27 00:30:16;;;;;;;0.80;0.75;;;9.10;60.30;;;;;;20609;6753;330175;-72
2022/12/27 00:32:52;;;;;;;0.80;0.80;;;9.60;58.70;;;;;;20559;6768;307537;-73
2022/12/27 00:35:28;;;;;;;0.87;0.87;;;9.60;58.70;;;;;;20776;6761;126705;-73
2022/12/27 00:38:05;;;;;;;0.83;0.70;;;9.40;59.10;;;;;;20683;6765;117418;-73
2022/12/27 00:40:39;;;;;;;1.57;0.63;;;9.00;59.90;;;;;;20803;6751;117005;-73
2022/12/27 00:43:14;;;;;;;2.72;0.93;;;8.70;60.80;;;;;;20553;6775;335494;-73
2022/12/27 00:45:50;;;;;;;0.83;0.73;;;8.90;60.00;;;;;;20799;6760;117517;-72
2022/12/27 00:48:26;;;;;;;1.77;0.90;;;8.80;60.10;;;;;;20673;6759;118173;-72
2022/12/27 00:51:01;;;;;;;0.90;0.87;;;8.50;60.60;;;;;;20785;6765;117788;-73
2022/12/27 00:53:38;;;;;;;1.20;1.10;;;8.40;60.40;;;;;;20544;6765;310128;-73
2022/12/27 00:56:13;;;;;;;1.10;1.00;;;8.40;60.30;;;;;;20748;6782;117206;-73
2022/12/27 00:58:55;;;;;;;2.20;1.03;;;8.30;60.30;;;;;;20640;6774;117360;-72
2022/12/27 01:01:31;;;;;;;1.37;1.27;;;8.10;60.90;;;;;;20561;6762;307746;-73
2022/12/27 01:04:06;;;;;;;1.40;1.30;;;8.20;59.40;;;;;;20643;6744;313247;-72
2022/12/27 01:06:42;;;;;;;1.70;1.20;;;8.50;57.80;;;;;;20634;6744;304161;-73
2022/12/27 01:09:17;;;;;;;1.63;1.00;;;8.80;57.00;;;;;;20838;6741;117742;-72
2022/12/27 01:11:53;;;;;;;1.37;1.20;;;8.60;57.30;;;;;;20855;6740;116833;-73
2022/12/27 01:14:29;;;;;;;1.33;1.23;;;8.20;58.10;;;;;;20654;6740;309369;-73
2022/12/27 01:17:04;;;;;;;2.15;1.17;;;8.30;57.70;;;;;;20618;6738;337058;-73
2022/12/27 01:19:40;;;;;;;2.13;1.03;;;8.50;56.70;;;;;;20852;6740;119897;-73
2022/12/27 01:22:15;;;;;;;5.67;1.47;;;8.40;57.10;;;;;;20842;6759;117783;-73
2022/12/27 01:24:51;;;;;;;1.50;1.37;;;8.00;57.80;;;;;;20899;6744;117056;-73
2022/12/27 01:27:27;;;;;;;1.55;1.20;;;7.80;57.80;;;;;;20530;6765;338193;-73
2022/12/27 01:30:03;;;;;;;1.70;1.13;;;7.80;57.80;;;;;;20538;6772;281849;-73
2022/12/27 01:32:39;;;;;;;1.93;1.30;;;8.40;55.50;;;;;;20490;6786;309146;-73
2022/12/27 01:35:15;;;;;;;1.98;1.55;;;8.40;55.50;;;;;;20542;6763;307784;-73
2022/12/27 01:37:50;;;;;;;2.05;1.20;;;8.60;54.60;;;;;;20409;6780;292655;-73
2022/12/27 01:40:26;;;;;;;2.23;1.20;;;8.70;53.90;;;;;;20729;6781;117263;-73
2022/12/27 01:43:01;;;;;;;2.35;1.30;;;8.40;54.70;;;;;;20555;6770;306688;-73
2022/12/27 01:45:38;;;;;;;1.23;1.10;;;8.10;55.30;;;;;;20705;6784;117268;-73
2022/12/27 01:48:13;;;;;;;1.63;1.03;;;8.00;55.20;;;;;;20606;6787;117468;-72
2022/12/27 01:51:02;;;;;;;1.37;1.27;;;7.70;56.20;;;;;;20642;6755;305624;-72
2022/12/27 01:53:37;;;;;;;2.67;1.03;;;7.70;55.70;;;;;;20852;6750;119069;-73
2022/12/27 01:56:19;;;;;;;1.30;1.20;;;7.60;55.90;;;;;;20829;6751;120611;-73
2022/12/27 01:58:58;;;;;;;1.30;1.20;;;7.30;56.70;;;;;;20665;6751;120036;-73
2022/12/27 02:01:34;;;;;;;1.67;1.50;;;7.00;57.40;;;;;;20577;6741;307338;-73
2022/12/27 02:04:13;;;;;;;1.90;1.10;;;7.50;55.40;;;;;;20591;6763;306176;-73
2022/12/27 02:06:49;;;;;;;1.30;1.10;;;7.50;55.40;;;;;;20791;6757;116866;-73
2022/12/27 02:09:38;;;;;;;1.67;1.25;;;7.40;55.70;;;;;;20563;6750;310829;-73
2022/12/27 02:12:13;;;;;;;2.70;1.40;;;7.40;55.70;;;;;;20852;6742;119715;-72
2022/12/27 02:14:49;;;;;;;2.20;2.10;;;7.30;56.30;;;;;;20892;6727;117156;-72
2022/12/27 02:17:25;;;;;;;2.17;1.50;;;7.10;56.80;;;;;;20547;6745;307170;-72
2022/12/27 02:20:22;;;;;;;2.07;1.17;;;7.10;56.80;;;;;;20865;6736;117901;-72
2022/12/27 02:26:26;;;;;;;1.43;0.90;;;7.30;56.50;;;;;;20881;6732;116579;-72
2022/12/27 02:29:04;;;;;;;2.17;1.20;;;7.10;56.70;;;;;;20483;6795;287958;-72
2022/12/27 02:31:40;;;;;;;2.70;1.10;;;7.20;56.60;;;;;;20418;6830;123577;-72
2022/12/27 02:34:15;;;;;;;1.23;1.13;;;7.10;56.90;;;;;;20813;6757;116752;-72
2022/12/27 02:36:52;;;;;;;1.10;1.00;;;6.80;57.60;;;;;;20791;6757;117939;-72
2022/12/27 02:39:27;;;;;;;2.73;1.10;;;6.60;58.50;;;;;;20839;6738;119723;-73
2022/12/27 02:53:59;;;;;;;1.67;1.10;;;7.10;54.90;;;;;;20564;6772;307138;-72
2022/12/27 03:03:19;;;;;;;3.53;0.93;;;6.90;55.90;;;;;;20901;6735;122041;-72
2022/12/27 03:05:20;;;;;;;1.77;1.25;;;6.30;57.70;;;;;;20657;6743;309376;-71
2022/12/27 03:08:02;;;;;;;1.85;1.30;;;6.50;56.80;;;;;;20490;6762;339139;-71
2022/12/27 03:16:54;;;;;;;1.90;1.17;;;6.40;56.40;;;;;;20103;6810;309439;-72
2022/12/27 03:25:28;;;;;;;1.05;1.00;;;6.70;56.20;;;;;;20598;6752;302761;-72
2022/12/27 03:34:03;;;;;;;1.43;1.30;;;6.90;55.50;;;;;;20894;6737;116823;-73
2022/12/27 03:39:29;;;;;;;1.90;1.62;;;6.70;55.30;;;;;;20642;6742;297196;-72
2022/12/27 03:45:13;;;;;;;1.50;1.23;;;6.80;54.90;;;;;;20812;6755;116935;-72
2022/12/27 03:47:55;;;;;;;1.40;1.30;;;6.30;55.90;;;;;;20701;6759;120430;-73
2022/12/27 03:50:31;;;;;;;3.07;1.80;;;6.00;56.70;;;;;;20782;6761;116904;-73
2022/12/27 03:53:09;;;;;;;1.60;1.50;;;5.70;57.50;;;;;;20834;6754;116533;-72
2022/12/27 03:55:45;;;;;;;2.30;2.10;;;5.50;58.20;;;;;;20614;6754;276868;-72
2022/12/27 03:58:21;;;;;;;2.25;2.10;;;5.80;57.90;;;;;;20457;6756;308658;-72
2022/12/27 04:00:56;;;;;;;4.20;2.00;;;6.10;56.50;;;;;;20823;6754;116651;-72
2022/12/27 04:03:32;;;;;;;1.20;1.20;;;6.10;56.70;;;;;;20802;6749;120861;-73
2022/12/27 04:06:11;;;;;;;2.35;1.42;;;6.00;58.70;;;;;;20615;6749;314028;-72
2022/12/27 04:35:05;;;;;;;1.50;1.40;;;5.80;59.30;;;;;;20884;6730;117795;-72
2022/12/27 04:37:40;;;;;;;2.37;1.60;;;5.80;59.20;;;;;;20496;6752;295235;-75
2022/12/27 04:54:57;;;;;;;1.33;1.33;;;6.60;56.40;;;;;;20747;6768;116883;-71
2022/12/27 04:57:32;;;;;;;2.00;1.90;;;6.60;56.20;;;;;;20543;6741;303455;-72
2022/12/27 05:03:04;;;;;;;2.60;1.57;;;6.40;56.90;;;;;;20767;6768;119980;-71
2022/12/27 05:05:39;;;;;;;1.97;1.57;;;6.10;57.70;;;;;;20796;6752;118896;-72
2022/12/27 05:14:09;;;;;;;1.80;1.70;;;5.90;57.90;;;;;;20625;6740;310349;-72
2022/12/27 05:16:48;;;;;;;3.03;1.90;;;6.10;57.40;;;;;;20846;6740;117326;-70
2022/12/27 05:19:24;;;;;;;1.90;1.73;;;6.10;56.90;;;;;;20526;6777;337123;-71
2022/12/27 05:25:38;;;;;;;2.03;1.80;;;5.90;57.00;;;;;;20829;6755;118164;-71
2022/12/27 05:27:33;;;;;;;2.87;1.70;;;5.40;58.70;;;;;;20488;6814;119374;-70
2022/12/27 05:30:09;;;;;;;1.50;1.50;;;5.40;58.70;;;;;;20875;6738;116181;-71
2022/12/27 05:32:45;;;;;;;1.97;1.50;;;5.30;59.50;;;;;;20816;6746;122651;-71
2022/12/27 05:35:22;;;;;;;2.20;2.00;;;5.10;60.00;;;;;;20571;6749;336634;-71
2022/12/27 05:37:58;;;;;;;1.90;1.80;;;5.30;59.30;;;;;;20693;6767;121437;-71
2022/12/27 05:40:33;;;;;;;2.40;2.20;;;5.40;59.10;;;;;;20798;6752;122509;-70
2022/12/27 05:43:09;;;;;;;2.30;2.10;;;5.20;59.50;;;;;;20510;6759;280064;-70
2022/12/27 05:45:47;;;;;;;2.10;2.00;;;5.40;58.90;;;;;;20802;6756;120065;-70
2022/12/27 05:48:21;;;;;;;2.50;2.40;;;5.20;59.40;;;;;;20776;6753;118336;-70
2022/12/27 05:51:00;;;;;;;2.55;2.35;;;5.20;59.40;;;;;;20486;6753;301626;-70
2022/12/27 05:53:32;;;;;;;1.70;1.60;;;5.50;59.20;;;;;;20745;6773;118683;-70
2022/12/27 05:56:07;;;;;;;1.70;1.60;;;5.50;59.10;;;;;;20599;6751;335740;-69
2022/12/27 05:58:43;;;;;;;2.70;1.90;;;5.70;57.90;;;;;;20451;6751;309164;-69
2022/12/27 06:01:19;;;;;;;2.90;2.00;;;6.00;56.80;;;;;;20846;6736;118342;-70
2022/12/27 06:03:54;;;;;;;3.20;1.90;;;5.90;56.90;;;;;;20824;6751;117543;-70
2022/12/27 06:06:30;;;;;;;2.20;2.00;;;5.70;57.80;;;;;;20647;6735;343615;-70
2022/12/27 06:09:06;;;;;;;2.12;1.80;;;6.10;56.40;;;;;;20391;6814;309049;-70
2022/12/27 06:11:42;;;;;;;1.90;1.70;;;6.10;56.40;;;;;;20815;6742;118086;-69
2022/12/27 06:14:18;;;;;;;2.17;1.50;;;6.00;56.20;;;;;;20531;6762;342966;-70
2022/12/27 06:16:57;;;;;;;2.40;1.70;;;6.00;56.20;;;;;;20617;6735;306298;-71
2022/12/27 06:19:29;;;;;;;1.80;1.70;;;6.30;55.30;;;;;;20594;6738;307018;-69
2022/12/27 06:22:05;;;;;;;2.30;1.47;;;6.50;54.40;;;;;;20568;6750;277537;-72
2022/12/27 06:24:40;;;;;;;1.73;1.50;;;6.60;53.40;;;;;;20824;6742;117961;-69
2022/12/27 06:27:17;;;;;;;2.20;1.80;;;6.30;54.50;;;;;;20481;6766;344250;-70
2022/12/27 06:29:52;;;;;;;2.17;1.97;;;6.30;54.50;;;;;;20796;6751;122771;-70
2022/12/27 06:32:28;;;;;;;2.20;1.50;;;6.10;54.90;;;;;;20597;6742;311487;-70
2022/12/27 06:35:04;;;;;;;2.60;1.23;;;6.10;54.60;;;;;;20546;6751;277901;-70
2022/12/27 06:37:42;;;;;;;1.30;1.20;;;6.40;54.10;;;;;;20773;6739;123683;-70
2022/12/27 06:40:15;;;;;;;1.60;1.50;;;6.20;54.60;;;;;;20641;6754;307170;-69
2022/12/27 06:42:50;;;;;;;2.10;1.50;;;6.20;54.20;;;;;;20852;6754;118410;-70
2022/12/27 06:45:26;;;;;;;1.70;1.25;;;6.00;54.60;;;;;;20567;6772;334652;-69
2022/12/27 06:48:03;;;;;;;3.17;1.20;;;6.10;54.80;;;;;;20756;6739;118735;-70
2022/12/27 06:50:38;;;;;;;2.07;1.33;;;5.90;55.10;;;;;;20844;6739;116807;-70
2022/12/27 06:53:14;;;;;;;1.90;1.30;;;5.70;56.00;;;;;;20843;6743;116924;-72
2022/12/27 06:55:51;;;;;;;1.90;1.17;;;5.50;56.80;;;;;;20615;6744;281710;-71
2022/12/27 06:58:27;;;;;;;1.03;1.03;;;5.60;55.70;;;;;;20637;6759;117904;-71
2022/12/27 07:01:12;;;;;;;2.67;1.23;;;5.60;55.90;;;;;;20842;6748;122659;-71
2022/12/27 07:03:51;;;;;;;1.10;1.00;;;5.40;56.50;;;;;;20855;6733;116668;-70
2022/12/27 07:06:27;;;;;;;1.17;1.17;;;5.20;57.30;;;;;;20788;6748;117949;-70
2022/12/27 07:09:02;;;;;;;1.23;1.10;;;5.10;58.60;;;;;;20611;6815;117619;-71
2022/12/27 07:11:38;;;;;;;1.47;0.90;;;4.90;58.40;;;;;;20857;6736;117849;-71
2022/12/27 07:14:13;;;;;;;2.63;1.37;;;4.90;58.90;;;;;;20611;6746;339786;-72
2022/12/27 07:16:50;;;;;;;1.43;1.33;;;5.20;57.60;;;;;;20876;6748;117292;-71
2022/12/27 07:19:25;;;;;;;3.10;1.20;;;5.10;57.50;;;;;;20818;6746;117935;-71
2022/12/27 07:22:01;;;;;;;2.67;1.13;;;5.00;58.00;;;;;;20802;6761;116960;-71
2022/12/27 07:24:37;;;;;;;1.07;1.03;;;4.90;58.60;;;;;;20786;6776;118579;-72
2022/12/27 07:27:14;;;;;;;1.50;1.40;;;4.90;59.10;;;;;;20657;6726;288592;-72
2022/12/27 07:29:48;;;;;;;2.10;1.30;;;5.10;57.70;;;;;;20757;6710;334411;-72
2022/12/27 07:32:23;;;;;;;2.30;1.30;;;5.60;56.20;;;;;;20701;6725;306949;-73
2022/12/27 07:35:01;;;;;;;1.92;1.50;;;6.00;55.00;;;;;;20624;6725;320331;-72
2022/12/27 07:37:37;;;;;;;3.37;2.90;;;6.20;54.50;;;;;;20619;6726;308316;-72
2022/12/27 07:40:12;;;;;;;4.07;2.63;;;6.40;53.50;;;;;;20904;6726;121332;-72
2022/12/27 07:42:48;;;;;;;1.47;1.37;;;6.30;54.20;;;;;;20666;6719;335220;-73
2022/12/27 07:45:24;;;;;;;2.47;1.20;;;6.30;54.00;;;;;;20883;6719;120499;-71
2022/12/27 07:47:59;;;;;;;2.40;1.93;;;6.10;54.60;;;;;;20819;6719;117535;-72
2022/12/27 07:50:35;;;;;;;1.58;1.35;;;5.80;55.40;;;;;;20710;6719;337469;-73
2022/12/27 07:53:13;;;;;;;3.10;1.30;;;5.90;55.10;;;;;;20916;6726;117071;-73
2022/12/27 07:55:49;;;;;;;2.40;2.20;;;5.90;55.50;;;;;;20893;6738;116616;-72
2022/12/27 07:58:21;;;;;;;2.60;1.40;;;5.70;56.20;;;;;;20782;6729;118324;-69
2022/12/27 08:00:57;;;;;;;2.30;2.10;;;5.60;57.10;;;;;;20780;6703;276071;-70
2022/12/27 08:03:33;;;;;;;2.07;1.90;;;5.80;55.80;;;;;;20903;6721;118102;-73
2022/12/27 08:06:31;;;;;;;2.83;2.50;;;5.90;56.10;;;;;;21010;6696;116584;-71
2022/12/27 08:09:07;;;;;;;2.27;1.53;;;5.90;56.80;;;;;;20680;6785;116991;-71
2022/12/27 08:11:42;;;;;;;2.70;2.30;;;5.80;57.50;;;;;;20814;6742;116874;-72
2022/12/27 08:14:18;;;;;;;3.57;2.97;;;5.80;58.10;;;;;;20691;6737;307512;-72
2022/12/27 08:16:54;;;;;;;2.87;2.10;;;6.10;56.60;;;;;;20589;6750;306324;-70
2022/12/27 08:19:29;;;;;;;2.25;1.90;;;6.70;54.90;;;;;;20568;6760;339973;-71
2022/12/27 08:22:05;;;;;;;1.50;1.47;;;7.10;53.50;;;;;;20883;6734;117976;-72
2022/12/27 08:24:41;;;;;;;2.73;1.47;;;7.20;54.00;;;;;;20913;6740;116644;-72
2022/12/27 08:27:20;;;;;;;2.42;1.20;;;7.10;54.90;;;;;;20566;6740;334095;-72
2022/12/27 08:29:56;;;;;;;1.73;1.10;;;7.60;52.20;;;;;;20674;6728;305921;-72
2022/12/27 08:32:31;;;;;;;2.75;1.42;;;7.70;52.00;;;;;;20597;6736;305976;-73
2022/12/27 08:35:07;;;;;;;1.73;1.33;;;8.00;51.00;;;;;;20866;6736;118250;-71
2022/12/27 08:37:43;;;;;;;2.80;1.53;;;8.00;52.00;;;;;;20788;6740;116442;-70
2022/12/27 08:40:18;;;;;;;2.30;1.13;;;7.80;53.10;;;;;;20928;6735;117903;-72
2022/12/27 08:42:57;;;;;;;3.17;1.53;;;7.60;54.00;;;;;;20565;6763;322192;-71
2022/12/27 08:45:29;;;;;;;1.87;1.30;;;7.90;52.50;;;;;;20596;6745;335449;-71
2022/12/27 08:48:05;;;;;;;1.80;1.40;;;8.30;51.50;;;;;;20464;6759;308120;-72
2022/12/27 08:50:41;;;;;;;2.00;1.20;;;8.60;50.80;;;;;;20825;6751;116879;-74
2022/12/27 08:53:16;;;;;;;2.33;1.60;;;8.60;51.70;;;;;;20786;6744;120984;-71
2022/12/27 08:55:52;;;;;;;2.83;2.57;;;8.40;52.70;;;;;;20796;6759;116983;-70
2022/12/27 08:58:27;;;;;;;3.15;2.70;;;8.20;53.60;;;;;;20487;6759;338149;-71
2022/12/27 09:01:03;;;;;;;2.97;2.47;;;8.30;52.50;;;;;;20826;6759;117156;-72
2022/12/27 09:03:39;;;;;;;2.95;2.05;;;8.40;52.20;;;;;;20547;6759;305908;-71
2022/12/27 09:06:18;;;;;;;4.33;2.47;;;8.40;52.20;;;;;;20790;6759;118249;-72
2022/12/27 09:08:54;;;;;;;2.60;2.40;;;8.40;53.00;;;;;;20494;6729;300987;-71
2022/12/27 09:11:29;;;;;;;2.60;2.40;;;8.60;52.60;;;;;;20656;6729;309284;-71
2022/12/27 09:14:06;;;;;;;3.97;1.83;;;8.70;52.70;;;;;;20887;6729;117196;-71
2022/12/27 09:16:45;;;;;;;2.37;2.10;;;8.70;53.30;;;;;;20873;6729;119686;-69
2022/12/27 09:19:18;;;;;;;2.60;2.00;;;8.70;54.50;;;;;;20636;6731;334534;-70
2022/12/27 09:22:13;;;;;;;3.67;1.83;;;8.70;54.50;;;;;;20843;6742;117072;-71
2022/12/27 09:24:49;;;;;;;1.70;1.60;;;8.90;55.00;;;;;;20854;6741;116881;-70
2022/12/27 09:27:25;;;;;;;1.90;1.70;;;8.90;55.80;;;;;;20499;6761;308740;-70
2022/12/27 09:30:00;;;;;;;2.00;1.80;;;9.20;55.60;;;;;;20611;6750;306111;-69
2022/12/27 09:32:36;;;;;;;2.47;1.80;;;9.70;54.40;;;;;;20812;6751;121150;-70
2022/12/27 09:35:17;;;;;;;1.98;1.80;;;9.90;54.60;;;;;;20610;6751;306055;-68
2022/12/27 09:37:48;;;;;;;2.10;1.90;;;10.50;52.00;;;;;;20508;6766;311968;-70
2022/12/27 09:40:24;;;;;;;2.10;1.90;;;10.40;52.00;;;;;;20602;6757;277323;-69
2022/12/27 09:43:02;;;;;;;2.10;1.90;;;10.80;50.80;;;;;;20586;6756;307945;-70
2022/12/27 09:45:40;;;;;;;1.97;1.77;;;11.20;50.20;;;;;;20633;6751;276515;-69
2022/12/27 09:48:28;;;;;;;2.60;2.13;;;11.20;49.60;;;;;;20553;6731;278215;-69
2022/12/27 09:51:04;;;;;;;2.10;1.90;;;11.40;49.60;;;;;;20620;6751;316785;-70
2022/12/27 09:54:03;;;;;;;3.80;2.53;;;11.40;49.90;;;;;;20855;6730;123724;-68
2022/12/27 09:56:39;;;;;;;2.03;1.83;;;11.30;49.80;;;;;;20886;6731;116759;-68
2022/12/27 09:59:15;;;;;;;1.80;1.70;;;10.70;51.90;;;;;;20893;6730;117803;-69
2022/12/27 10:01:51;;;;;;;1.93;1.77;;;10.70;51.90;;;;;;20873;6731;117070;-70
2022/12/27 10:04:26;;;;;;;6.25;2.05;;;10.50;52.20;;;;;;20666;6736;335561;-70
2022/12/27 10:07:02;;;;;;;2.78;2.10;;;10.60;49.90;;;;;;20636;6731;311617;-73
2022/12/27 10:09:38;;;;;;;4.23;2.10;;;11.20;49.90;;;;;;20584;6751;277825;-72
2022/12/27 10:12:30;;;;;;;2.00;1.90;;;11.20;49.30;;;;;;20673;6731;305406;-71
2022/12/27 10:15:33;;;;;;;2.50;1.90;;;11.60;48.10;;;;;;20675;6731;305602;-71
2022/12/27 10:18:28;;;;;;;3.20;2.03;;;11.60;48.00;;;;;;20562;6731;336824;-71
2022/12/27 10:21:04;;;;;;;2.87;1.70;;;11.70;47.70;;;;;;20675;6731;305527;-70
2022/12/27 10:23:39;;;;;;;2.20;2.00;;;11.80;47.50;;;;;;20650;6731;281564;-72
2022/12/27 10:26:15;;;;;;;1.60;1.47;;;11.80;47.10;;;;;;20891;6731;116901;-70
2022/12/27 10:29:00;;;;;;;2.78;2.10;;;11.50;48.20;;;;;;20487;6736;308938;-69
2022/12/27 10:31:36;;;;;;;2.10;1.80;;;11.60;47.30;;;;;;20621;6735;297118;-70
2022/12/27 10:34:12;;;;;;;5.40;1.87;;;11.60;47.30;;;;;;20822;6806;122984;-71
2022/12/27 10:36:47;;;;;;;2.15;1.95;;;11.40;48.40;;;;;;20568;6747;335314;-69
2022/12/27 10:39:26;;;;;;;2.78;1.70;;;11.40;48.30;;;;;;20624;6735;308713;-69
2022/12/27 10:42:40;;;;;;;2.00;1.70;;;11.70;47.40;;;;;;20655;6735;284803;-69
2022/12/27 10:45:23;;;;;;;2.57;1.70;;;11.90;46.90;;;;;;20882;6735;116101;-71
2022/12/27 10:47:59;;;;;;;2.23;1.97;;;11.70;48.00;;;;;;20234;6779;283058;-68
2022/12/27 10:50:34;;;;;;;1.80;1.70;;;11.70;46.40;;;;;;20604;6747;308332;-70
2022/12/27 10:53:30;;;;;;;1.57;1.40;;;11.80;46.70;;;;;;20893;6722;118004;-69
2022/12/27 10:56:15;;;;;;;2.22;1.60;;;11.70;47.80;;;;;;20677;6722;276227;-69
2022/12/27 10:59:04;;;;;;;2.43;1.80;;;11.70;47.20;;;;;;20535;6722;307748;-72
2022/12/27 11:01:40;;;;;;;2.07;1.30;;;12.00;46.90;;;;;;20907;6722;121778;-68
2022/12/27 11:04:23;;;;;;;2.27;1.77;;;11.80;48.00;;;;;;20708;6722;342731;-72
2022/12/27 11:07:02;;;;;;;1.57;1.47;;;11.90;47.00;;;;;;20886;6722;118497;-71
2022/12/27 11:09:38;;;;;;;3.63;1.50;;;11.80;48.00;;;;;;20889;6722;119802;-68
2022/12/27 11:12:23;;;;;;;2.92;2.10;;;11.50;48.90;;;;;;20685;6722;305662;-71
2022/12/27 11:14:58;;;;;;;3.30;1.27;;;11.60;46.20;;;;;;20915;6722;117760;-71
2022/12/27 11:17:34;;;;;;;2.20;1.60;;;11.60;47.50;;;;;;20616;6722;405692;-69
2022/12/27 11:20:13;;;;;;;2.00;1.80;;;12.00;46.80;;;;;;20705;6722;277111;-74
2022/12/27 11:22:56;;;;;;;1.73;1.63;;;11.90;46.70;;;;;;20911;6722;116900;-71
2022/12/27 11:25:32;;;;;;;3.17;1.83;;;11.70;48.60;;;;;;20897;6722;117913;-71
2022/12/27 11:28:07;;;;;;;2.67;1.80;;;11.70;48.60;;;;;;20577;6722;289962;-70
2022/12/27 11:30:44;;;;;;;2.30;1.90;;;12.10;45.90;;;;;;20706;6722;305893;-71
2022/12/27 11:33:22;;;;;;;2.83;1.80;;;12.00;45.80;;;;;;20675;6722;337500;-69
2022/12/27 11:35:58;;;;;;;3.23;2.00;;;12.30;45.50;;;;;;20915;6722;118158;-70
2022/12/27 11:38:34;;;;;;;2.30;1.58;;;12.20;46.70;;;;;;20553;6722;336673;-70
2022/12/27 11:41:19;;;;;;;2.15;1.37;;;12.20;46.30;;;;;;20708;6722;280197;-74
2022/12/27 11:44:19;;;;;;;1.63;1.50;;;12.30;45.00;;;;;;20700;6722;277405;-75
2022/12/27 11:47:11;;;;;;;1.67;1.57;;;12.10;46.00;;;;;;20743;6798;116882;-74
2022/12/27 11:50:23;;;;;;;1.40;1.30;;;12.10;46.00;;;;;;20811;6747;118697;-71
2022/12/27 11:53:19;;;;;;;4.23;1.67;;;11.70;47.20;;;;;;20884;6735;117031;-73
2022/12/27 11:56:18;;;;;;;1.07;1.00;;;11.20;48.00;;;;;;20881;6735;117675;-72
2022/12/27 11:59:12;;;;;;;2.00;1.40;;;10.90;48.80;;;;;;20713;6735;118513;-72
2022/12/27 12:02:17;;;;;;;1.97;1.30;;;10.70;49.50;;;;;;20818;6747;118456;-76
2022/12/27 12:05:33;;;;;;;1.40;1.23;;;10.60;50.10;;;;;;20922;6722;116668;-72
2022/12/27 12:08:22;;;;;;;2.87;1.60;;;10.50;50.60;;;;;;20587;6722;310093;-75
2022/12/27 12:11:04;;;;;;;2.00;1.60;;;10.80;48.20;;;;;;20192;6779;334857;-71
2022/12/27 12:14:16;;;;;;;1.60;1.50;;;11.30;48.20;;;;;;20904;6722;118950;-71
2022/12/27 12:16:59;;;;;;;2.67;1.80;;;11.40;48.50;;;;;;20700;6722;276245;-76
2022/12/27 12:20:00;;;;;;;2.10;1.80;;;11.50;46.00;;;;;;20700;6722;284618;-72
2022/12/27 12:22:49;;;;;;;1.63;1.53;;;11.70;45.20;;;;;;20671;6732;302455;-77
2022/12/27 12:25:45;;;;;;;1.40;1.30;;;11.90;45.10;;;;;;20665;6722;334071;-74
2022/12/27 12:28:31;;;;;;;1.80;1.20;;;12.00;44.50;;;;;;20773;6722;118781;-74
2022/12/27 12:31:27;;;;;;;2.35;1.55;;;11.70;45.20;;;;;;20706;6722;307134;-72
2022/12/27 12:34:29;;;;;;;2.67;1.40;;;11.70;45.10;;;;;;20903;6722;116777;-72
2022/12/27 12:37:14;;;;;;;1.87;1.30;;;11.60;46.00;;;;;;20887;6722;116856;-71
2022/12/27 12:40:02;;;;;;;1.43;1.30;;;11.20;46.70;;;;;;20555;6779;117795;-72
2022/12/27 12:42:45;;;;;;;2.08;1.62;;;10.90;47.60;;;;;;20704;6722;337800;-72
2022/12/27 12:45:40;;;;;;;1.73;1.33;;;11.10;45.30;;;;;;20875;6722;122923;-72
2022/12/27 12:48:39;;;;;;;2.45;1.40;;;11.20;46.40;;;;;;20572;6722;336551;-72
2022/12/27 12:51:34;;;;;;;1.43;1.33;;;11.40;44.10;;;;;;20925;6722;117264;-76
2022/12/27 12:54:37;;;;;;;2.72;1.50;;;11.30;45.60;;;;;;20715;6722;334904;-74
2022/12/27 12:57:19;;;;;;;2.73;1.30;;;11.40;45.40;;;;;;20873;6722;116883;-74
2022/12/27 13:00:07;;;;;;;1.20;1.00;;;11.40;46.40;;;;;;20926;6722;116921;-72
2022/12/27 13:03:20;;;;;;;2.17;1.10;;;11.20;47.10;;;;;;20694;6722;294434;-71
2022/12/27 13:06:22;;;;;;;2.45;1.23;;;11.30;44.60;;;;;;20702;6722;334439;-70
2022/12/27 13:09:21;;;;;;;1.52;1.20;;;11.60;43.70;;;;;;20522;6722;316637;-70
2022/12/27 13:12:03;;;;;;;2.95;1.25;;;11.80;43.00;;;;;;20704;6722;305339;-70
2022/12/27 13:14:48;;;;;;;1.50;1.00;;;12.00;41.70;;;;;;20908;6722;117251;-70
2022/12/27 13:17:24;;;;;;;2.60;0.83;;;11.70;43.40;;;;;;20835;6722;117655;-72
2022/12/27 13:20:06;;;;;;;0.73;0.73;;;11.40;45.00;;;;;;20844;6747;117074;-72
2022/12/27 13:23:08;;;;;;;1.67;1.20;;;11.00;46.00;;;;;;20680;6722;304501;-72
2022/12/27 13:26:00;;;;;;;1.30;1.20;;;11.20;44.70;;;;;;20889;6722;117617;-71
2022/12/27 13:28:42;;;;;;;2.53;1.30;;;11.10;45.70;;;;;;20530;6722;278304;-72
2022/12/27 13:31:35;;;;;;;3.63;1.30;;;11.20;44.90;;;;;;20825;6747;118086;-72
2022/12/27 13:34:23;;;;;;;2.03;1.15;;;11.10;45.70;;;;;;20703;6722;276704;-72
2022/12/27 13:37:05;;;;;;;1.63;1.20;;;11.20;44.30;;;;;;20671;6722;311302;-72
2022/12/27 13:40:05;;;;;;;1.80;1.30;;;11.70;44.10;;;;;;20671;6722;282256;-72
2022/12/27 13:43:04;;;;;;;1.20;0.90;;;11.40;45.80;;;;;;20901;6722;116744;-70
2022/12/27 13:46:06;;;;;;;1.13;1.03;;;11.40;45.30;;;;;;20901;6722;116909;-73
2022/12/27 13:49:22;;;;;;;1.77;1.20;;;11.10;46.50;;;;;;20541;6722;277339;-71
2022/12/27 13:52:23;;;;;;;1.57;1.03;;;11.20;45.00;;;;;;20919;6722;116911;-71
2022/12/27 13:55:12;;;;;;;1.23;1.10;;;11.00;45.90;;;;;;20925;6722;117182;-70
2022/12/27 13:58:21;;;;;;;1.70;1.33;;;10.70;46.70;;;;;;20591;6722;311750;-72
2022/12/27 14:01:26;;;;;;;2.00;1.30;;;10.80;45.70;;;;;;20846;6747;122673;-75
2022/12/27 14:04:21;;;;;;;1.13;1.07;;;10.70;47.10;;;;;;20908;6722;116737;-75
2022/12/27 14:07:14;;;;;;;1.70;1.40;;;10.50;46.30;;;;;;20674;6722;278005;-75
2022/12/27 14:09:53;;;;;;;2.40;1.47;;;10.50;46.30;;;;;;20708;6722;277078;-75
2022/12/27 14:12:42;;;;;;;2.90;1.37;;;10.90;44.50;;;;;;19642;7066;288314;-75
2022/12/27 14:15:18;;;;;;;2.30;1.53;;;10.80;44.70;;;;;;20668;6804;144836;-75
2022/12/27 14:18:00;;;;;;;2.10;1.37;;;10.70;44.50;;;;;;20587;6722;292294;-75
2022/12/27 14:20:45;;;;;;;2.40;1.00;;;10.70;44.00;;;;;;20920;6722;116818;-75
2022/12/27 14:23:48;;;;;;;2.17;1.13;;;10.50;45.00;;;;;;20874;6722;117416;-75
2022/12/27 14:26:43;;;;;;;2.60;1.37;;;10.10;46.00;;;;;;20711;6722;280337;-74
2022/12/27 14:29:58;;;;;;;3.10;1.40;;;10.20;44.90;;;;;;20689;6722;334885;-75
2022/12/27 14:32:44;;;;;;;1.63;1.50;;;10.70;43.70;;;;;;20693;6722;276626;-78
2022/12/27 14:35:26;;;;;;;1.53;1.13;;;10.70;43.60;;;;;;20926;6722;117129;-72
2022/12/27 14:38:28;;;;;;;2.03;1.20;;;10.40;44.70;;;;;;20807;6722;118279;-72
2022/12/27 14:41:33;;;;;;;2.47;1.30;;;9.90;46.70;;;;;;20920;6722;116693;-73
2022/12/27 14:44:26;;;;;;;1.13;1.03;;;9.30;48.70;;;;;;20929;6722;117584;-71
2022/12/27 14:47:14;;;;;;;1.53;1.43;;;9.30;48.70;;;;;;20890;6722;116676;-73
2022/12/27 14:50:20;;;;;;;1.83;1.30;;;9.10;49.30;;;;;;20842;6747;116845;-76
2022/12/27 14:53:29;;;;;;;1.20;1.10;;;8.80;50.90;;;;;;20912;6722;116547;-81
2022/12/27 14:56:24;;;;;;;2.87;1.07;;;8.80;50.20;;;;;;20925;6722;116943;-73
2022/12/27 14:59:17;;;;;;;3.15;1.60;;;8.70;50.60;;;;;;20528;6722;307323;-73
2022/12/27 15:02:12;;;;;;;3.57;2.37;;;9.00;49.20;;;;;;20636;6747;305950;-74
2022/12/27 15:04:54;;;;;;;4.30;2.80;;;9.50;48.40;;;;;;20315;6798;118437;-73
2022/12/27 15:07:49;;;;;;;2.97;2.10;;;9.40;48.90;;;;;;20567;6747;309162;-75
2022/12/27 15:10:48;;;;;;;3.97;2.10;;;9.50;48.30;;;;;;20929;6721;117221;-76
2022/12/27 15:13:46;;;;;;;2.43;1.87;;;9.40;48.90;;;;;;20854;6736;119033;-77
2022/12/27 15:16:42;;;;;;;3.45;2.70;;;9.10;49.70;;;;;;20674;6736;340931;-76
2022/12/27 15:19:45;;;;;;;2.30;2.10;;;9.20;49.60;;;;;;20665;6727;291140;-76
2022/12/27 15:22:27;;;;;;;3.47;1.70;;;9.60;48.70;;;;;;20882;6780;116750;-72
2022/12/27 15:25:04;;;;;;;2.03;1.63;;;9.00;50.10;;;;;;20948;6708;116640;-70
2022/12/27 15:27:59;;;;;;;3.77;2.10;;;9.00;50.10;;;;;;20584;6737;317764;-72
2022/12/27 15:30:44;;;;;;;2.80;2.22;;;9.10;49.60;;;;;;20704;6718;289587;-75
2022/12/27 15:33:40;;;;;;;2.67;1.97;;;9.40;48.70;;;;;;20890;6718;118138;-72
2022/12/27 15:36:16;;;;;;;2.80;2.50;;;9.20;49.50;;;;;;20604;6748;339523;-74